Time;durP1;ratioP1;P1;durP2;ratioP2;P2;SDS_P1;SDS_P2;PMS_P1;PMS_P2;Temp;Humidity;BMP_temperature;BMP_pressure;BME280_temperature;BME280_humidity;BME280_pressure;Samples;Min_cycle;Max_cycle;Signal;HPM_P1;HPM_P2
2021/04/27 00:02:17;;;;;;;6.32;3.70;;;11.30;33.80;;;;;;5128984;27;20027;-69
2021/04/27 00:04:43;;;;;;;7.95;4.25;;;11.30;33.90;;;;;;5134461;27;20035;-70
2021/04/27 00:07:09;;;;;;;6.93;3.75;;;11.30;34.00;;;;;;5131192;27;20408;-68
2021/04/27 00:09:35;;;;;;;6.43;3.55;;;11.30;33.90;;;;;;5130145;27;20088;-72
2021/04/27 00:12:02;;;;;;;10.23;4.55;;;11.30;34.10;;;;;;5136431;27;20027;-73
2021/04/27 00:14:28;;;;;;;5.90;3.55;;;11.30;34.00;;;;;;5135108;27;20030;-70
2021/04/27 00:16:54;;;;;;;9.82;4.15;;;11.30;34.10;;;;;;5136149;27;20023;-72
2021/04/27 00:19:20;;;;;;;10.65;4.07;;;11.20;34.10;;;;;;5136086;27;20072;-69
2021/04/27 00:21:46;;;;;;;8.13;3.75;;;11.20;34.10;;;;;;5136137;27;20476;-76
2021/04/27 00:24:12;;;;;;;8.60;3.83;;;11.20;34.00;;;;;;5128439;27;20084;-71
2021/04/27 00:26:40;;;;;;;6.25;3.80;;;11.20;34.00;;;;;;5136177;27;20112;-73
2021/04/27 00:29:06;;;;;;;6.47;3.05;;;11.20;34.00;;;;;;5124808;27;20058;-76
2021/04/27 00:31:33;;;;;;;12.10;3.63;;;11.20;33.90;;;;;;5115995;27;20024;-72
2021/04/27 00:33:59;;;;;;;7.50;3.60;;;11.20;34.00;;;;;;5135700;27;20385;-69
2021/04/27 00:36:26;;;;;;;5.25;3.63;;;11.20;34.00;;;;;;5135385;27;20034;-77
2021/04/27 00:38:53;;;;;;;37.45;18.05;;;11.20;33.80;;;;;;5125533;27;20030;-65
2021/04/27 00:41:19;;;;;;;61.50;28.60;;;11.20;34.00;;;;;;5115216;28;20079;-68
2021/04/27 00:43:44;;;;;;;44.42;20.02;;;11.30;35.20;;;;;;5129113;27;20469;-70
2021/04/27 00:46:10;;;;;;;48.28;22.83;;;11.40;35.20;;;;;;5130580;27;20019;-70
2021/04/27 00:48:36;;;;;;;11.82;5.85;;;11.40;35.00;;;;;;5128863;27;20027;-72
2021/04/27 00:51:02;;;;;;;6.85;3.72;;;11.50;34.10;;;;;;5129298;27;20027;-74
2021/04/27 00:53:30;;;;;;;7.00;3.58;;;11.60;33.60;;;;;;5134590;27;20023;-74
2021/04/27 00:55:56;;;;;;;5.55;3.10;;;11.60;33.40;;;;;;5114425;27;20081;-72
2021/04/27 00:58:24;;;;;;;5.72;3.10;;;11.60;33.10;;;;;;5114379;27;20020;-73
2021/04/27 01:00:51;;;;;;;5.78;3.42;;;11.70;33.00;;;;;;5116752;27;20487;-74
2021/04/27 01:03:17;;;;;;;6.75;3.42;;;11.60;32.90;;;;;;5133423;27;20031;-74
2021/04/27 01:05:44;;;;;;;8.52;3.70;;;11.60;32.80;;;;;;5116267;27;20119;-74
2021/04/27 01:08:16;;;;;;;6.00;3.47;;;11.60;32.80;;;;;;5115590;27;20023;-74
2021/04/27 01:11:04;;;;;;;5.78;3.67;;;11.60;32.80;;;;;;5133886;27;20430;-73
2021/04/27 01:13:38;;;;;;;9.43;3.58;;;11.60;32.70;;;;;;5115287;27;20441;-74
2021/04/27 01:16:06;;;;;;;5.93;3.22;;;11.50;32.70;;;;;;5129402;27;20059;-72
2021/04/27 01:18:32;;;;;;;7.15;3.53;;;11.60;32.70;;;;;;5120647;27;20073;-73
2021/04/27 01:21:00;;;;;;;6.30;3.15;;;11.60;32.70;;;;;;5133631;27;20019;-73
2021/04/27 01:23:41;;;;;;;4.88;2.83;;;11.50;32.70;;;;;;5133645;27;20030;-72
2021/04/27 01:26:19;;;;;;;6.88;3.25;;;11.50;32.70;;;;;;5113657;27;20057;-73
2021/04/27 01:28:48;;;;;;;6.88;3.47;;;11.50;32.60;;;;;;5113144;28;20031;-73
2021/04/27 01:31:16;;;;;;;7.47;3.15;;;11.50;32.60;;;;;;5112643;28;20032;-72
2021/04/27 01:33:42;;;;;;;8.30;3.72;;;11.50;33.30;;;;;;5111650;28;20055;-73
2021/04/27 01:36:10;;;;;;;9.88;3.17;;;11.50;32.80;;;;;;5126527;27;20031;-73
2021/04/27 01:38:35;;;;;;;4.95;3.38;;;11.50;32.70;;;;;;5118153;27;20050;-73
2021/04/27 01:41:02;;;;;;;5.32;3.00;;;11.40;32.70;;;;;;5133089;27;20096;-72
2021/04/27 01:43:28;;;;;;;6.68;3.40;;;11.40;32.70;;;;;;5132030;27;20019;-73
2021/04/27 01:46:06;;;;;;;5.95;3.42;;;11.40;32.80;;;;;;5113198;28;20024;-73
2021/04/27 01:48:36;;;;;;;5.55;3.30;;;11.40;32.80;;;;;;5113603;28;20377;-73
2021/04/27 01:51:04;;;;;;;4.28;3.08;;;11.40;32.70;;;;;;5133227;27;20042;-73
2021/04/27 01:53:31;;;;;;;6.43;3.15;;;11.30;32.60;;;;;;5133451;27;20058;-73
2021/04/27 01:55:57;;;;;;;6.00;3.70;;;11.40;32.70;;;;;;5116580;27;20144;-72
2021/04/27 01:58:23;;;;;;;5.72;3.35;;;11.30;32.70;;;;;;5122203;27;20027;-74
2021/04/27 02:00:49;;;;;;;5.90;3.05;;;11.30;32.80;;;;;;5130147;27;20030;-73
2021/04/27 02:03:15;;;;;;;5.32;3.05;;;11.30;32.80;;;;;;5131961;27;20387;-72
2021/04/27 02:05:41;;;;;;;10.30;3.50;;;11.30;32.80;;;;;;5117578;27;20028;-72
2021/04/27 02:08:07;;;;;;;5.90;3.67;;;11.30;32.80;;;;;;5129395;27;20031;-72
2021/04/27 02:10:33;;;;;;;7.25;4.35;;;11.30;32.80;;;;;;5126960;27;20102;-72
2021/04/27 02:13:07;;;;;;;7.35;3.58;;;11.20;32.80;;;;;;5110911;28;20028;-72
2021/04/27 02:15:34;;;;;;;;;;;11.20;32.90;;;;;;5112825;28;20068;-72
2021/04/27 02:18:18;;;;;;;8.60;3.75;;;11.30;32.50;;;;;;5113653;28;20008;-73
2021/04/27 02:20:44;;;;;;;5.22;3.15;;;11.30;32.70;;;;;;5112573;28;20023;-72
2021/04/27 02:23:12;;;;;;;5.10;3.25;;;11.30;32.70;;;;;;5112361;28;20115;-73
2021/04/27 02:25:39;;;;;;;5.63;3.42;;;11.30;32.80;;;;;;5112484;28;20106;-72
2021/04/27 02:28:06;;;;;;;10.02;3.40;;;11.30;32.80;;;;;;5112738;28;20024;-73
2021/04/27 02:30:33;;;;;;;4.53;3.00;;;11.30;32.90;;;;;;5112149;28;20020;-73
2021/04/27 02:32:59;;;;;;;7.63;3.80;;;11.30;32.80;;;;;;5112379;28;20496;-72
2021/04/27 02:35:24;;;;;;;6.18;3.80;;;11.20;32.90;;;;;;5112168;28;20028;-72
2021/04/27 02:37:51;;;;;;;5.53;3.53;;;11.20;32.90;;;;;;5112471;28;20044;-73
2021/04/27 02:40:26;;;;;;;7.90;3.28;;;11.20;32.80;;;;;;5126156;28;20935;-72
2021/04/27 02:42:58;;;;;;;8.77;4.07;;;11.20;32.90;;;;;;5129925;27;20031;-74
2021/04/27 02:45:31;;;;;;;8.77;3.15;;;11.20;32.90;;;;;;5132773;27;20016;-73
2021/04/27 02:48:07;;;;;;;5.72;3.45;;;11.20;32.90;;;;;;5132886;27;20027;-74
2021/04/27 02:50:33;;;;;;;6.53;3.92;;;11.10;33.00;;;;;;5132630;27;20023;-72
2021/04/27 02:52:59;;;;;;;11.25;4.20;;;11.10;33.00;;;;;;5132310;27;20047;-72
2021/04/27 02:55:25;;;;;;;6.90;4.18;;;11.10;33.00;;;;;;5123919;27;20032;-72
2021/04/27 02:57:51;;;;;;;7.60;3.70;;;11.10;33.10;;;;;;5116675;28;20031;-72
2021/04/27 03:00:17;;;;;;;6.63;4.20;;;11.10;33.10;;;;;;5132873;27;20028;-73
2021/04/27 03:02:43;;;;;;;5.85;3.63;;;11.10;33.10;;;;;;5132452;27;20027;-74
2021/04/27 03:05:09;;;;;;;11.95;4.38;;;11.10;33.20;;;;;;5132288;28;20027;-72
2021/04/27 03:07:34;;;;;;;6.30;4.03;;;11.10;33.20;;;;;;5123830;27;20028;-73
2021/04/27 03:10:00;;;;;;;10.02;3.90;;;11.10;33.30;;;;;;5122213;28;20443;-73
2021/04/27 03:12:27;;;;;;;11.15;4.78;;;11.10;33.40;;;;;;5112452;28;20027;-74
2021/04/27 03:14:53;;;;;;;7.55;3.80;;;11.10;33.50;;;;;;5111213;28;20024;-74
2021/04/27 03:17:19;;;;;;;9.88;3.95;;;11.10;33.60;;;;;;5119151;28;20071;-72
2021/04/27 03:19:45;;;;;;;7.18;3.97;;;11.10;33.50;;;;;;5123710;27;20358;-74
2021/04/27 03:22:10;;;;;;;10.88;4.30;;;11.10;33.60;;;;;;5111774;28;20473;-72
2021/04/27 03:24:36;;;;;;;7.78;4.32;;;11.00;33.50;;;;;;5113252;28;20027;-73
2021/04/27 03:27:02;;;;;;;8.45;3.70;;;11.10;33.60;;;;;;5121171;27;20491;-72
2021/04/27 03:29:28;;;;;;;6.90;3.85;;;11.10;33.60;;;;;;5116461;28;20022;-73
2021/04/27 03:31:54;;;;;;;8.00;3.92;;;11.10;33.70;;;;;;5116546;28;20019;-74
2021/04/27 03:34:20;;;;;;;7.22;3.80;;;11.10;33.80;;;;;;5120531;27;20015;-73
2021/04/27 03:36:45;;;;;;;6.82;4.25;;;11.10;33.90;;;;;;5128853;27;20027;-72
2021/04/27 03:39:11;;;;;;;8.45;3.50;;;11.00;34.00;;;;;;5116238;28;20074;-75
2021/04/27 03:41:37;;;;;;;6.85;4.03;;;11.00;34.10;;;;;;5129201;27;20038;-72
2021/04/27 03:44:03;;;;;;;12.50;4.20;;;11.00;34.20;;;;;;5136481;27;20043;-73
2021/04/27 03:46:29;;;;;;;8.77;4.43;;;11.00;34.20;;;;;;5134924;27;20034;-72
2021/04/27 03:48:54;;;;;;;9.13;3.92;;;11.00;34.40;;;;;;5136186;27;20472;-73
2021/04/27 03:51:20;;;;;;;10.75;4.63;;;11.00;34.70;;;;;;5141477;27;20193;-72
2021/04/27 03:53:46;;;;;;;6.38;3.90;;;10.90;34.70;;;;;;5114635;28;20496;-74
2021/04/27 03:56:12;;;;;;;10.20;3.50;;;10.90;34.80;;;;;;5121819;27;20015;-74
2021/04/27 03:58:40;;;;;;;8.27;3.92;;;10.90;34.70;;;;;;5118533;27;20520;-74
2021/04/27 04:01:06;;;;;;;11.20;4.65;;;10.90;34.90;;;;;;5115961;28;20032;-73
2021/04/27 04:03:32;;;;;;;6.68;4.18;;;10.90;35.10;;;;;;5116201;28;20023;-73
2021/04/27 04:05:57;;;;;;;11.82;4.15;;;10.80;35.40;;;;;;5115690;28;20023;-73
2021/04/27 04:08:23;;;;;;;15.10;4.82;;;10.80;35.50;;;;;;5129845;27;20477;-73
2021/04/27 04:10:49;;;;;;;9.25;4.38;;;10.80;35.60;;;;;;5136127;27;20027;-73
2021/04/27 04:13:15;;;;;;;7.93;3.88;;;10.80;35.60;;;;;;5117809;27;20024;-73
2021/04/27 04:15:40;;;;;;;7.35;4.32;;;10.80;35.60;;;;;;5115700;28;20554;-73
2021/04/27 04:18:06;;;;;;;10.07;4.05;;;10.80;35.60;;;;;;5116412;27;20032;-73
2021/04/27 04:20:32;;;;;;;10.95;3.88;;;10.80;35.60;;;;;;5115424;28;20465;-72
2021/04/27 04:22:58;;;;;;;10.80;3.90;;;10.80;36.00;;;;;;5115266;28;20024;-73
2021/04/27 04:25:24;;;;;;;11.88;4.50;;;10.80;35.90;;;;;;5115322;28;20095;-74
2021/04/27 04:27:50;;;;;;;9.35;4.85;;;10.80;36.00;;;;;;5115525;27;20107;-73
2021/04/27 04:30:23;;;;;;;7.82;4.70;;;10.80;36.20;;;;;;5115156;28;20015;-72
2021/04/27 04:32:50;;;;;;;10.68;4.68;;;10.80;36.40;;;;;;5114093;28;20058;-73
2021/04/27 04:35:17;;;;;;;9.45;4.72;;;10.80;36.50;;;;;;5114005;28;20481;-74
2021/04/27 04:37:43;;;;;;;13.32;4.57;;;10.80;36.60;;;;;;5115142;27;20035;-73
2021/04/27 04:40:11;;;;;;;5.95;4.40;;;10.80;36.70;;;;;;5115250;27;20126;-73
2021/04/27 04:42:38;;;;;;;9.05;4.45;;;10.80;36.60;;;;;;5114776;28;20023;-72
2021/04/27 04:45:08;;;;;;;10.73;4.85;;;10.80;36.50;;;;;;5130202;27;20391;-73
2021/04/27 04:47:34;;;;;;;7.95;4.60;;;10.80;36.80;;;;;;5128238;27;20043;-74
2021/04/27 04:50:00;;;;;;;8.00;4.45;;;10.90;36.70;;;;;;5126249;27;20068;-72
2021/04/27 04:52:27;;;;;;;6.47;4.45;;;10.90;36.60;;;;;;5135375;27;20504;-73
2021/04/27 04:54:53;;;;;;;9.57;5.05;;;10.90;36.60;;;;;;5134117;27;20031;-72
2021/04/27 04:57:19;;;;;;;8.40;4.72;;;10.90;36.60;;;;;;5125255;27;20019;-74
2021/04/27 04:59:45;;;;;;;14.93;4.45;;;11.00;36.80;;;;;;5133992;27;20024;-72
2021/04/27 05:02:11;;;;;;;8.88;4.97;;;10.90;36.70;;;;;;5135293;27;20091;-73
2021/04/27 05:04:36;;;;;;;8.55;4.90;;;11.00;36.70;;;;;;5128983;27;20058;-73
2021/04/27 05:07:04;;;;;;;10.00;5.07;;;11.00;36.60;;;;;;5124153;27;20015;-76
2021/04/27 05:09:30;;;;;;;9.88;4.60;;;11.00;36.70;;;;;;5135155;27;20060;-74
2021/04/27 05:11:57;;;;;;;10.15;4.97;;;11.00;36.50;;;;;;5134870;27;20027;-73
2021/04/27 05:14:23;;;;;;;14.32;6.85;;;11.10;36.60;;;;;;5135166;27;20101;-73
2021/04/27 05:16:49;;;;;;;17.38;6.80;;;11.10;36.70;;;;;;5130767;27;20096;-74
2021/04/27 05:19:15;;;;;;;16.20;7.45;;;11.10;36.80;;;;;;5134860;27;20495;-72
2021/04/27 05:21:42;;;;;;;9.35;6.00;;;11.10;37.10;;;;;;5133100;27;20084;-72
2021/04/27 05:24:08;;;;;;;17.65;6.22;;;11.20;36.80;;;;;;5113981;28;20487;-74
2021/04/27 05:26:34;;;;;;;17.40;9.88;;;11.20;37.20;;;;;;5113992;28;20089;-73
2021/04/27 05:29:00;;;;;;;13.95;8.30;;;11.20;37.30;;;;;;5112734;28;20476;-72
2021/04/27 05:31:26;;;;;;;15.02;8.25;;;11.30;37.40;;;;;;5113903;28;20023;-73
2021/04/27 05:33:52;;;;;;;15.50;7.65;;;11.30;37.60;;;;;;5113784;28;20024;-73
2021/04/27 05:36:17;;;;;;;13.52;6.45;;;11.30;37.80;;;;;;5113857;28;20027;-74
2021/04/27 05:38:44;;;;;;;20.38;9.70;;;11.40;38.00;;;;;;5112794;27;20039;-72
2021/04/27 05:41:09;;;;;;;14.23;8.60;;;11.40;38.00;;;;;;5124496;27;20062;-72
2021/04/27 05:43:35;;;;;;;13.52;7.10;;;11.40;38.10;;;;;;5132715;27;20055;-72
2021/04/27 05:46:01;;;;;;;13.80;7.47;;;11.40;37.90;;;;;;5134133;27;20471;-75
2021/04/27 05:48:27;;;;;;;12.98;7.20;;;11.50;38.00;;;;;;5116587;27;20358;-72
2021/04/27 05:50:53;;;;;;;14.75;8.48;;;11.50;38.40;;;;;;5112500;28;20024;-74
2021/04/27 05:53:18;;;;;;;15.05;7.60;;;11.50;38.40;;;;;;5113228;28;20073;-74
2021/04/27 05:55:44;;;;;;;18.08;7.25;;;11.60;38.60;;;;;;5113602;28;20019;-73
2021/04/27 05:58:11;;;;;;;12.55;5.88;;;11.60;38.40;;;;;;5127143;27;20495;-73
2021/04/27 06:00:37;;;;;;;12.18;7.63;;;11.60;38.40;;;;;;5131842;27;20039;-74
2021/04/27 06:03:03;;;;;;;15.45;7.28;;;11.70;38.20;;;;;;5132235;27;20027;-73
2021/04/27 06:05:29;;;;;;;19.40;7.90;;;11.70;38.30;;;;;;5133902;27;20011;-72
2021/04/27 06:07:55;;;;;;;12.95;7.00;;;11.80;38.20;;;;;;5117803;27;20035;-74
2021/04/27 06:10:21;;;;;;;19.70;8.02;;;11.80;38.20;;;;;;5116655;27;20027;-73
2021/04/27 06:12:47;;;;;;;20.83;9.02;;;11.90;38.00;;;;;;5133492;27;20031;-74
2021/04/27 06:15:16;;;;;;;18.15;8.20;;;11.90;38.20;;;;;;5133340;27;20023;-74
2021/04/27 06:17:43;;;;;;;15.43;7.07;;;12.00;38.10;;;;;;5119818;27;20072;-74
2021/04/27 06:20:11;;;;;;;12.65;7.57;;;12.00;38.10;;;;;;5113129;28;20024;-73
2021/04/27 06:22:37;;;;;;;11.13;7.10;;;12.00;38.30;;;;;;5113267;28;20471;-73
2021/04/27 06:25:04;;;;;;;14.40;7.97;;;12.10;38.00;;;;;;5112879;28;20129;-73
2021/04/27 06:27:30;;;;;;;17.05;8.73;;;12.10;38.10;;;;;;5124052;28;20027;-73
2021/04/27 06:29:58;;;;;;;19.10;7.57;;;12.20;38.40;;;;;;5130279;27;20020;-73
2021/04/27 06:32:25;;;;;;;13.27;8.07;;;12.20;38.60;;;;;;5116908;28;20374;-73
2021/04/27 06:34:51;;;;;;;12.70;7.35;;;12.30;38.70;;;;;;5113051;28;20062;-74
2021/04/27 06:37:17;;;;;;;12.55;7.05;;;12.30;38.40;;;;;;5124351;28;20055;-74
2021/04/27 06:39:43;;;;;;;12.35;6.65;;;12.40;38.20;;;;;;5111312;28;20038;-74
2021/04/27 06:42:08;;;;;;;14.25;7.60;;;12.40;38.00;;;;;;5131435;28;20027;-73
2021/04/27 06:44:36;;;;;;;14.32;8.05;;;12.50;38.10;;;;;;5133382;27;20030;-74
2021/04/27 06:47:03;;;;;;;14.40;7.55;;;12.50;38.20;;;;;;5131169;28;20421;-73
2021/04/27 06:49:29;;;;;;;18.48;8.70;;;12.60;38.20;;;;;;5132917;27;20020;-74
2021/04/27 06:51:55;;;;;;;16.92;9.05;;;12.60;38.30;;;;;;5133234;27;20047;-72
2021/04/27 06:54:21;;;;;;;17.67;8.35;;;12.70;38.20;;;;;;5131279;27;20099;-73
2021/04/27 06:56:46;;;;;;;14.68;7.88;;;12.70;38.00;;;;;;5114017;27;20050;-73
2021/04/27 06:59:14;;;;;;;11.77;6.32;;;12.80;38.00;;;;;;5112914;28;20023;-74
2021/04/27 07:01:40;;;;;;;20.75;7.30;;;12.80;37.60;;;;;;5116759;28;20019;-73
2021/04/27 07:04:05;;;;;;;13.35;6.20;;;12.90;37.90;;;;;;5124161;27;20031;-73
2021/04/27 07:06:31;;;;;;;15.57;7.22;;;13.00;37.70;;;;;;5131052;27;20046;-73
2021/04/27 07:08:57;;;;;;;13.30;6.78;;;13.00;37.70;;;;;;5128122;27;20273;-72
2021/04/27 07:11:22;;;;;;;13.48;7.07;;;13.10;37.40;;;;;;5136131;27;20480;-73
2021/04/27 07:13:48;;;;;;;14.95;7.38;;;13.10;37.30;;;;;;5135900;27;20042;-73
2021/04/27 07:16:17;;;;;;;16.40;6.30;;;13.20;37.10;;;;;;5134913;27;20094;-74
2021/04/27 07:18:43;;;;;;;12.27;6.65;;;13.30;37.10;;;;;;5128369;27;20051;-73
2021/04/27 07:21:09;;;;;;;12.48;5.45;;;13.40;36.90;;;;;;5134839;27;20072;-73
2021/04/27 07:23:35;;;;;;;11.63;6.72;;;13.40;36.70;;;;;;5116223;27;20376;-73
2021/04/27 07:26:01;;;;;;;17.75;7.75;;;13.50;36.70;;;;;;5114862;28;20019;-74
2021/04/27 07:28:27;;;;;;;10.48;5.57;;;13.60;36.60;;;;;;5115804;27;20443;-73
2021/04/27 07:30:53;;;;;;;12.32;5.88;;;13.60;36.60;;;;;;5128247;27;20047;-73
2021/04/27 07:33:19;;;;;;;9.85;5.68;;;13.70;36.50;;;;;;5135523;27;20027;-72
2021/04/27 07:35:45;;;;;;;14.60;6.03;;;13.80;36.40;;;;;;5136989;27;20023;-73
2021/04/27 07:38:11;;;;;;;9.23;5.25;;;13.90;36.30;;;;;;5125369;27;20031;-72
2021/04/27 07:40:37;;;;;;;12.25;5.65;;;14.00;36.20;;;;;;5126496;27;20035;-74
2021/04/27 07:43:03;;;;;;;14.27;6.00;;;14.10;35.80;;;;;;5116163;28;20024;-76
2021/04/27 07:45:33;;;;;;;9.43;4.30;;;14.20;35.70;;;;;;5129486;27;20016;-75
2021/04/27 07:48:00;;;;;;;8.70;5.05;;;14.20;35.20;;;;;;5118206;27;20110;-76
2021/04/27 07:50:26;;;;;;;10.57;4.70;;;14.30;35.00;;;;;;5116661;28;20024;-76
2021/04/27 07:52:52;;;;;;;12.70;4.75;;;14.40;34.70;;;;;;5116256;27;20047;-75
2021/04/27 07:55:18;;;;;;;9.05;5.03;;;14.50;34.30;;;;;;5116052;28;20034;-76
2021/04/27 07:57:44;;;;;;;8.43;4.95;;;14.50;34.60;;;;;;5127748;27;20019;-73
2021/04/27 08:00:10;;;;;;;12.15;4.60;;;14.60;34.60;;;;;;5131910;27;20031;-74
2021/04/27 08:02:37;;;;;;;12.38;4.80;;;14.70;34.40;;;;;;5123613;27;20030;-75
2021/04/27 08:05:04;;;;;;;13.93;4.68;;;14.70;34.40;;;;;;5128620;27;20026;-75
2021/04/27 08:07:30;;;;;;;10.73;4.70;;;14.80;34.20;;;;;;5119548;27;20020;-76
2021/04/27 08:09:56;;;;;;;11.77;4.80;;;14.90;34.10;;;;;;5123968;27;20069;-75
2021/04/27 08:12:21;;;;;;;6.82;4.90;;;15.00;34.00;;;;;;5131123;27;20096;-76
2021/04/27 08:14:47;;;;;;;13.32;4.88;;;15.10;33.60;;;;;;5130417;27;20031;-75
2021/04/27 08:17:13;;;;;;;8.95;4.88;;;15.20;33.50;;;;;;5124537;27;20023;-76
2021/04/27 08:19:39;;;;;;;8.85;4.38;;;15.20;33.30;;;;;;5127573;27;20035;-76
2021/04/27 08:22:06;;;;;;;9.45;4.38;;;15.30;32.70;;;;;;5133464;27;20035;-76
2021/04/27 08:24:34;;;;;;;9.00;4.28;;;15.40;32.80;;;;;;5133496;27;20102;-75
2021/04/27 08:26:59;;;;;;;8.60;4.68;;;15.40;32.80;;;;;;5135814;27;20049;-75
2021/04/27 08:29:25;;;;;;;8.52;4.47;;;15.50;32.40;;;;;;5136128;27;20020;-74
2021/04/27 08:31:51;;;;;;;11.68;4.97;;;15.50;32.50;;;;;;5135678;27;20464;-76
2021/04/27 08:34:17;;;;;;;9.57;4.38;;;15.60;32.40;;;;;;5131288;27;20031;-75
2021/04/27 08:36:43;;;;;;;7.75;4.45;;;15.70;32.30;;;;;;5131587;27;20077;-74
2021/04/27 08:39:09;;;;;;;8.88;3.90;;;15.80;31.90;;;;;;5129992;27;20041;-75
2021/04/27 08:41:37;;;;;;;10.43;4.85;;;15.90;31.30;;;;;;5133655;27;20027;-75
2021/04/27 08:44:04;;;;;;;15.00;4.82;;;15.90;30.40;;;;;;5121668;27;20019;-74
2021/04/27 08:46:30;;;;;;;11.65;4.07;;;16.00;30.10;;;;;;5127441;27;20542;-75
2021/04/27 08:48:56;;;;;;;7.75;4.47;;;16.00;29.10;;;;;;5122034;27;20036;-74
2021/04/27 08:51:22;;;;;;;9.23;4.20;;;16.10;29.50;;;;;;5135050;27;20035;-74
2021/04/27 08:53:48;;;;;;;17.85;5.15;;;16.20;29.20;;;;;;5118318;27;20028;-74
2021/04/27 08:56:14;;;;;;;11.43;4.53;;;16.20;29.60;;;;;;5114675;28;20023;-70
2021/04/27 08:58:41;;;;;;;18.42;4.50;;;16.30;29.10;;;;;;5129999;27;20035;-71
2021/04/27 09:01:07;;;;;;;9.18;4.22;;;16.40;28.90;;;;;;5133066;27;20043;-70
2021/04/27 09:03:43;;;;;;;12.02;5.18;;;16.50;28.70;;;;;;5129585;27;20023;-71
2021/04/27 09:06:19;;;;;;;27.65;9.02;;;16.50;28.60;;;;;;5116874;27;20122;-69
2021/04/27 09:08:45;;;;;;;9.02;4.90;;;16.60;28.70;;;;;;5117237;27;20024;-72
2021/04/27 09:11:31;;;;;;;13.05;4.72;;;16.60;28.60;;;;;;5121378;27;20023;-71
2021/04/27 09:14:11;;;;;;;10.45;4.43;;;16.70;28.30;;;;;;5133530;27;20027;-70
2021/04/27 09:16:38;;;;;;;11.07;4.18;;;16.70;27.80;;;;;;5122106;27;20031;-70
2021/04/27 09:19:06;;;;;;;12.07;4.90;;;16.80;28.00;;;;;;5126877;27;20489;-69
2021/04/27 09:21:37;;;;;;;15.85;4.22;;;16.80;28.20;;;;;;5117840;27;20097;-72
2021/04/27 09:24:14;;;;;;;15.70;4.55;;;16.90;28.00;;;;;;5112316;27;20053;-71
2021/04/27 09:26:41;;;;;;;10.65;4.65;;;16.90;27.50;;;;;;5113395;27;20098;-72
2021/04/27 09:29:07;;;;;;;7.15;4.40;;;16.90;27.00;;;;;;5132649;27;20023;-71
2021/04/27 09:31:38;;;;;;;7.38;4.00;;;16.90;27.30;;;;;;5131785;27;20018;-71
2021/04/27 09:34:28;;;;;;;8.68;3.70;;;17.00;27.30;;;;;;5121072;27;20106;-72
2021/04/27 09:37:09;;;;;;;10.77;4.53;;;17.00;27.60;;;;;;5115867;27;20031;-72
2021/04/27 09:39:50;;;;;;;5.88;4.00;;;17.10;27.60;;;;;;5134046;27;20381;-70
2021/04/27 09:42:17;;;;;;;7.68;4.18;;;17.20;27.30;;;;;;5127667;27;20027;-70
2021/04/27 09:44:50;;;;;;;7.43;4.10;;;17.30;27.30;;;;;;5118555;27;20023;-71
2021/04/27 09:47:21;;;;;;;12.40;3.97;;;17.30;27.40;;;;;;5132108;27;20020;-78
2021/04/27 09:49:58;;;;;;;18.40;4.70;;;17.40;27.80;;;;;;5114471;28;20362;-76
2021/04/27 09:52:26;;;;;;;6.63;4.00;;;17.40;26.90;;;;;;5120345;27;20452;-69
2021/04/27 09:55:11;;;;;;;7.97;3.65;;;17.40;26.90;;;;;;5113768;28;20024;-71
2021/04/27 09:57:47;;;;;;;7.78;4.07;;;17.50;26.90;;;;;;5113743;28;20038;-69
2021/04/27 10:00:39;;;;;;;5.40;3.42;;;17.50;26.70;;;;;;5113680;28;20080;-72
2021/04/27 10:03:12;;;;;;;9.90;3.72;;;17.60;26.60;;;;;;5129269;27;20043;-71
2021/04/27 10:05:42;;;;;;;6.60;3.03;;;17.60;26.80;;;;;;5113776;28;20020;-70
2021/04/27 10:08:10;;;;;;;7.50;3.92;;;17.70;26.60;;;;;;5120652;27;20027;-71
2021/04/27 10:10:36;;;;;;;8.98;4.28;;;17.70;27.00;;;;;;5134142;27;20531;-69
2021/04/27 10:13:11;;;;;;;7.10;3.78;;;17.80;26.50;;;;;;5134079;27;20061;-70
2021/04/27 10:15:38;;;;;;;8.55;4.05;;;17.90;26.30;;;;;;5134072;27;20117;-72
2021/04/27 10:18:06;;;;;;;10.13;3.35;;;17.90;26.10;;;;;;5134015;27;20031;-70
2021/04/27 10:20:32;;;;;;;5.38;3.72;;;18.00;26.40;;;;;;5133973;27;20068;-72
2021/04/27 10:22:59;;;;;;;12.02;4.05;;;18.10;26.30;;;;;;5133935;27;20027;-71
2021/04/27 10:25:29;;;;;;;7.97;4.20;;;18.10;25.80;;;;;;5133964;27;20054;-70
2021/04/27 10:28:00;;;;;;;6.03;3.80;;;18.10;25.70;;;;;;5133826;27;20353;-71
2021/04/27 10:30:28;;;;;;;7.10;3.38;;;18.20;25.80;;;;;;5133997;27;20016;-70
2021/04/27 10:33:04;;;;;;;10.48;4.18;;;18.20;26.00;;;;;;5131132;27;20077;-72
2021/04/27 10:35:34;;;;;;;10.85;3.85;;;18.30;25.60;;;;;;5114028;28;20541;-72
2021/04/27 10:38:16;;;;;;;6.25;3.38;;;18.30;25.40;;;;;;5123572;27;20062;-71
2021/04/27 10:40:50;;;;;;;11.75;3.97;;;18.40;26.00;;;;;;5138191;27;20106;-70
2021/04/27 10:43:25;;;;;;;8.82;3.65;;;18.40;25.60;;;;;;5136637;27;20135;-71
2021/04/27 10:45:58;;;;;;;5.13;3.03;;;18.50;25.70;;;;;;5137853;27;20015;-70
2021/04/27 10:48:32;;;;;;;6.78;3.97;;;18.50;25.60;;;;;;5137970;27;20027;-70
2021/04/27 10:51:18;;;;;;;;;;;18.60;25.50;;;;;;5137990;27;20022;-72
2021/04/27 10:53:44;;;;;;;7.07;3.67;;;18.70;26.20;;;;;;5137742;27;19952;-72
2021/04/27 10:56:30;;;;;;;10.05;3.78;;;18.70;25.50;;;;;;5137789;27;20027;-71
2021/04/27 10:59:13;;;;;;;7.60;3.85;;;18.80;25.40;;;;;;5137447;27;20094;-70
2021/04/27 11:01:42;;;;;;;8.50;4.00;;;18.80;25.40;;;;;;5137695;27;20623;-72
2021/04/27 11:04:29;;;;;;;8.18;4.63;;;18.90;25.50;;;;;;5137350;27;20023;-70
2021/04/27 11:07:29;;;;;;;6.70;4.63;;;18.90;25.30;;;;;;5137436;27;20060;-70
2021/04/27 11:09:58;;;;;;;5.78;3.95;;;19.00;25.40;;;;;;5132775;27;20023;-70
2021/04/27 11:12:31;;;;;;;8.65;3.50;;;19.10;25.40;;;;;;5137263;27;20023;-70
2021/04/27 11:14:59;;;;;;;7.57;3.60;;;19.10;25.20;;;;;;5137331;27;20036;-69
2021/04/27 11:17:34;;;;;;;8.93;4.32;;;19.10;25.30;;;;;;5137307;27;20380;-70
2021/04/27 11:20:02;;;;;;;24.15;4.90;;;19.20;25.50;;;;;;5137157;27;20019;-69
2021/04/27 11:22:33;;;;;;;5.75;3.92;;;19.20;25.20;;;;;;5137337;27;20114;-71
2021/04/27 11:25:01;;;;;;;10.15;4.10;;;19.20;25.30;;;;;;5137189;27;20026;-71
2021/04/27 11:27:31;;;;;;;8.07;3.90;;;19.30;25.40;;;;;;5135706;27;20050;-71
2021/04/27 11:30:01;;;;;;;9.25;4.28;;;19.30;25.30;;;;;;5137141;27;20110;-71
2021/04/27 11:32:30;;;;;;;6.55;4.30;;;19.40;25.20;;;;;;5136999;27;20079;-70
2021/04/27 11:35:10;;;;;;;9.38;4.45;;;19.40;25.30;;;;;;5117002;27;20020;-72
2021/04/27 11:37:40;;;;;;;6.20;3.90;;;19.40;25.10;;;;;;5118092;27;20039;-70
2021/04/27 11:40:22;;;;;;;7.22;4.70;;;19.50;25.30;;;;;;5137006;27;20388;-69
2021/04/27 11:43:10;;;;;;;10.13;3.72;;;19.50;25.40;;;;;;5136747;27;20023;-69
2021/04/27 11:45:43;;;;;;;11.45;3.50;;;19.50;25.70;;;;;;5135367;27;20047;-70
2021/04/27 11:48:12;;;;;;;9.77;3.88;;;19.60;25.90;;;;;;5136616;27;20019;-71
2021/04/27 11:50:38;;;;;;;4.53;3.42;;;19.70;25.70;;;;;;5136465;27;20054;-71
2021/04/27 11:53:16;;;;;;;10.45;4.20;;;19.80;25.90;;;;;;5136166;27;20050;-70
2021/04/27 11:55:43;;;;;;;5.72;4.00;;;19.90;25.80;;;;;;5136363;27;20015;-72
2021/04/27 11:58:22;;;;;;;7.72;3.78;;;19.90;25.50;;;;;;5135283;27;20043;-71
2021/04/27 12:00:53;;;;;;;6.60;4.97;;;20.00;25.50;;;;;;5136442;27;20030;-70
2021/04/27 12:03:41;;;;;;;7.30;4.90;;;20.00;25.60;;;;;;5134916;27;20030;-70
2021/04/27 12:06:08;;;;;;;16.20;4.22;;;20.00;25.50;;;;;;5126648;27;20031;-71
2021/04/27 12:08:37;;;;;;;10.30;4.35;;;20.10;25.50;;;;;;5135847;27;20023;-71
2021/04/27 12:11:13;;;;;;;6.05;4.30;;;20.10;25.60;;;;;;5136048;27;20020;-70
2021/04/27 12:13:52;;;;;;;5.30;3.85;;;20.10;25.60;;;;;;5136211;27;20039;-69
2021/04/27 12:16:29;;;;;;;12.30;4.90;;;20.20;25.60;;;;;;5135988;27;20026;-71
2021/04/27 12:19:11;;;;;;;8.00;4.40;;;20.20;25.60;;;;;;5136091;27;20023;-71
2021/04/27 12:21:40;;;;;;;20.30;5.25;;;20.20;25.70;;;;;;5134494;27;20498;-72
2021/04/27 12:24:21;;;;;;;14.35;5.32;;;20.30;25.50;;;;;;5135855;27;20023;-69
2021/04/27 12:26:55;;;;;;;7.45;4.15;;;20.30;25.70;;;;;;5135981;27;20480;-69
2021/04/27 12:29:31;;;;;;;8.45;4.60;;;20.40;25.60;;;;;;5134496;27;20053;-71
2021/04/27 12:32:11;;;;;;;8.43;4.95;;;20.50;25.80;;;;;;5135832;27;20030;-70
2021/04/27 12:34:52;;;;;;;10.38;5.13;;;20.50;26.00;;;;;;5118486;27;20381;-70
2021/04/27 12:37:18;;;;;;;6.65;4.20;;;20.60;25.90;;;;;;5113792;28;20028;-71
2021/04/27 12:39:44;;;;;;;6.88;4.70;;;20.70;25.50;;;;;;5134125;27;20015;-70
2021/04/27 12:42:37;;;;;;;9.77;4.35;;;20.80;25.50;;;;;;5135563;27;20508;-71
2021/04/27 12:45:10;;;;;;;7.70;4.30;;;20.90;25.60;;;;;;5134932;27;20035;-71
2021/04/27 12:47:37;;;;;;;6.30;4.10;;;21.00;25.50;;;;;;5133994;27;20408;-71
2021/04/27 12:50:11;;;;;;;10.02;4.88;;;21.10;25.60;;;;;;5135184;27;20026;-70
2021/04/27 12:52:54;;;;;;;10.73;5.05;;;21.10;25.40;;;;;;5133889;27;20472;-70